Time;durP1;ratioP1;P1;durP2;ratioP2;P2;SDS_P1;SDS_P2;PMS_P1;PMS_P2;Temp;Humidity;BMP_temperature;BMP_pressure;BME280_temperature;BME280_humidity;BME280_pressure;Samples;Min_cycle;Max_cycle;Signal;HPM_P1;HPM_P2
2022/09/18 00:02:05;;;;;;;1999.90;999.90;;;;;;;-144.65;100.00;64500.88;5017038;28;20018;-75
2022/09/18 00:04:30;;;;;;;1999.90;999.90;;;;;;;-144.65;100.00;64500.88;4993615;28;20030;-75
2022/09/18 00:06:55;;;;;;;1999.90;999.90;;;;;;;-144.65;100.00;64500.88;5011733;28;20463;-74
2022/09/18 00:09:21;;;;;;;1999.90;999.90;;;;;;;-144.65;100.00;64500.88;5011214;28;20376;-75
2022/09/18 00:11:48;;;;;;;1999.90;999.90;;;;;;;-144.65;100.00;64500.88;5010701;28;20026;-75
2022/09/18 00:14:18;;;;;;;1999.90;999.90;;;;;;;-144.65;100.00;64500.88;5011213;28;20026;-74
2022/09/18 00:16:44;;;;;;;1999.90;999.90;;;;;;;-144.65;100.00;64500.88;5011546;28;20036;-74
2022/09/18 00:19:10;;;;;;;1999.90;999.90;;;;;;;-144.65;100.00;64500.88;5011291;28;20758;-75
2022/09/18 00:21:42;;;;;;;1999.90;999.90;;;;;;;-144.65;100.00;64500.88;5010795;28;20014;-75
2022/09/18 00:24:08;;;;;;;1999.90;999.90;;;;;;;-144.65;100.00;64500.88;5011761;28;20092;-74
2022/09/18 00:26:34;;;;;;;1999.90;999.90;;;;;;;-144.65;100.00;64500.88;5011019;28;20030;-75
2022/09/18 00:29:00;;;;;;;1999.90;999.90;;;;;;;-144.65;100.00;64500.88;5011461;28;20079;-75
2022/09/18 00:31:29;;;;;;;1999.90;999.90;;;;;;;-144.65;100.00;64500.88;5011084;28;20030;-74
2022/09/18 00:33:56;;;;;;;1999.90;999.90;;;;;;;-144.65;100.00;64500.88;5011325;28;20021;-74
2022/09/18 00:36:22;;;;;;;1999.90;999.90;;;;;;;-144.65;100.00;64500.88;5011484;28;20026;-75
2022/09/18 00:38:48;;;;;;;1999.90;999.90;;;;;;;-144.65;100.00;64500.88;5011360;28;20446;-75
2022/09/18 00:41:26;;;;;;;1999.90;999.90;;;;;;;-144.65;100.00;64500.88;5010722;28;20026;-75
2022/09/18 00:43:55;;;;;;;1999.90;999.90;;;;;;;-144.65;100.00;64500.88;4994062;28;20673;-74
2022/09/18 00:46:34;;;;;;;1999.90;999.90;;;;;;;-144.65;100.00;64500.88;5013862;28;20334;-75
2022/09/18 00:49:08;;;;;;;1999.90;999.90;;;;;;;-144.65;100.00;64500.88;5016104;28;20034;-75
2022/09/18 00:51:36;;;;;;;1999.90;999.90;;;;;;;-144.65;100.00;64500.88;5017602;28;20076;-74
2022/09/18 00:54:20;;;;;;;1999.90;999.90;;;;;;;-144.65;100.00;64500.88;5021986;28;20053;-75
2022/09/18 00:56:47;;;;;;;1999.90;999.90;;;;;;;-144.65;100.00;64500.88;5017402;28;20030;-74
2022/09/18 00:59:18;;;;;;;1999.90;999.90;;;;;;;-144.65;100.00;64500.88;5018896;28;20116;-75
2022/09/18 01:01:43;;;;;;;1999.90;999.90;;;;;;;-144.65;100.00;64500.88;5016331;28;20022;-75
2022/09/18 01:04:11;;;;;;;1999.90;999.90;;;;;;;-144.65;100.00;64500.88;5020888;28;20483;-75
2022/09/18 01:06:49;;;;;;;1999.90;999.90;;;;;;;-144.65;100.00;64500.88;5021924;28;20482;-75
2022/09/18 01:09:34;;;;;;;1999.90;999.90;;;;;;;-144.65;100.00;64500.88;5018956;28;20049;-74
2022/09/18 01:12:30;;;;;;;1999.90;999.90;;;;;;;-144.65;100.00;64500.88;5023506;28;20386;-74
2022/09/18 01:15:04;;;;;;;1999.90;999.90;;;;;;;-144.65;100.00;64500.88;5029445;28;20085;-75
2022/09/18 01:17:29;;;;;;;1999.90;999.90;;;;;;;-144.65;100.00;64500.88;5027179;28;20038;-75
2022/09/18 01:20:04;;;;;;;1999.90;999.90;;;;;;;-144.65;100.00;64500.88;5014380;28;20030;-75
2022/09/18 01:22:57;;;;;;;1999.90;999.90;;;;;;;-144.65;100.00;64500.88;5014440;28;20041;-75
2022/09/18 01:25:37;;;;;;;1999.90;999.90;;;;;;;-144.65;100.00;64500.88;4996743;28;20124;-75
2022/09/18 01:28:24;;;;;;;1999.90;999.90;;;;;;;-144.65;100.00;64500.88;5014429;28;20026;-75
2022/09/18 01:30:54;;;;;;;1999.90;999.90;;;;;;;-144.65;100.00;64500.88;5014245;28;20483;-75
2022/09/18 01:33:31;;;;;;;1999.90;999.90;;;;;;;-144.65;100.00;64500.88;5014427;28;20580;-75
2022/09/18 01:36:02;;;;;;;1999.90;999.90;;;;;;;-144.65;100.00;64500.88;5014364;28;20466;-75
2022/09/18 01:38:51;;;;;;;1999.90;999.90;;;;;;;-144.65;100.00;64500.88;5014187;28;20033;-75
2022/09/18 01:41:22;;;;;;;1999.90;999.90;;;;;;;-144.65;100.00;64500.88;5014005;28;20048;-75
2022/09/18 01:43:53;;;;;;;1999.90;999.90;;;;;;;-144.65;100.00;64500.88;5013968;28;20045;-74
2022/09/18 01:46:19;;;;;;;1999.90;999.90;;;;;;;-144.65;100.00;64500.88;5013995;28;20097;-75
2022/09/18 01:48:54;;;;;;;1999.90;999.90;;;;;;;-144.65;100.00;64500.88;5013754;28;20026;-75
2022/09/18 01:51:23;;;;;;;1999.90;999.90;;;;;;;-144.65;100.00;64500.88;5013520;28;20030;-75
2022/09/18 01:54:03;;;;;;;1999.90;999.90;;;;;;;-144.65;100.00;64500.88;5013678;28;20481;-75
2022/09/18 01:56:42;;;;;;;1999.90;999.90;;;;;;;-144.65;100.00;64500.88;5013324;28;20038;-75
2022/09/18 01:59:17;;;;;;;1999.90;999.90;;;;;;;-144.65;100.00;64500.88;5013692;28;20437;-74
2022/09/18 02:01:45;;;;;;;1999.90;999.90;;;;;;;-144.65;100.00;64500.88;5013721;28;20483;-74
2022/09/18 02:04:18;;;;;;;1999.90;999.90;;;;;;;-144.65;100.00;64500.88;5013582;28;20062;-75
2022/09/18 02:06:53;;;;;;;1999.90;999.90;;;;;;;-144.65;100.00;64500.88;5013593;28;20113;-75
2022/09/18 02:09:19;;;;;;;1999.90;999.90;;;;;;;-144.65;100.00;64500.88;4995722;28;20037;-75
2022/09/18 02:11:49;;;;;;;1999.90;999.90;;;;;;;-144.65;100.00;64500.88;5013960;28;20081;-75
2022/09/18 02:14:37;;;;;;;1999.90;999.90;;;;;;;-144.65;100.00;64500.88;5015757;28;20076;-75
2022/09/18 02:17:16;;;;;;;1999.90;999.90;;;;;;;-144.65;100.00;64500.88;5017120;28;20148;-75
2022/09/18 02:20:09;;;;;;;1999.90;999.90;;;;;;;-144.65;100.00;64500.88;4999620;28;20049;-75
2022/09/18 02:22:34;;;;;;;1999.90;999.90;;;;;;;-144.65;100.00;64500.88;5013682;28;20021;-75
2022/09/18 02:25:03;;;;;;;1999.90;999.90;;;;;;;-144.65;100.00;64500.88;5013772;28;20372;-75
2022/09/18 02:27:30;;;;;;;1999.90;999.90;;;;;;;-144.65;100.00;64500.88;5014839;28;20038;-75
2022/09/18 02:29:59;;;;;;;1999.90;999.90;;;;;;;-144.65;100.00;64500.88;5017129;28;20545;-75
2022/09/18 02:32:24;;;;;;;1999.90;999.90;;;;;;;-144.65;100.00;64500.88;5017636;28;20510;-75
2022/09/18 02:34:50;;;;;;;1999.90;999.90;;;;;;;-144.65;100.00;64500.88;5016815;28;20060;-75
2022/09/18 02:37:27;;;;;;;1999.90;999.90;;;;;;;-144.65;100.00;64500.88;5014653;28;20025;-75
2022/09/18 02:40:22;;;;;;;1999.90;999.90;;;;;;;-144.65;100.00;64500.88;5013527;28;20091;-75
2022/09/18 02:43:12;;;;;;;1999.90;999.90;;;;;;;-144.65;100.00;64500.88;5018788;28;20037;-75
2022/09/18 02:46:07;;;;;;;1999.90;999.90;;;;;;;-144.65;100.00;64500.88;5011651;28;20041;-74
2022/09/18 02:48:49;;;;;;;1999.90;999.90;;;;;;;-144.65;100.00;64500.88;5004455;28;20025;-74
2022/09/18 02:51:25;;;;;;;1999.90;999.90;;;;;;;-144.65;100.00;64500.88;5011218;28;20110;-75
2022/09/18 02:54:31;;;;;;;1999.90;999.90;;;;;;;-144.65;100.00;64500.88;4992482;28;20105;-75
2022/09/18 02:57:05;;;;;;;1999.90;999.90;;;;;;;-144.65;100.00;64500.88;4991824;28;20077;-74
2022/09/18 02:59:38;;;;;;;1999.90;999.90;;;;;;;-144.65;100.00;64500.88;4992598;28;20030;-75
2022/09/18 03:02:05;;;;;;;1999.90;999.90;;;;;;;-144.65;100.00;64500.88;4992787;28;20076;-74
2022/09/18 03:04:30;;;;;;;1999.90;999.90;;;;;;;-144.65;100.00;64500.88;5005408;28;20045;-75
2022/09/18 03:06:57;;;;;;;1999.90;999.90;;;;;;;-144.65;100.00;64500.88;5018705;28;20037;-75
2022/09/18 03:09:23;;;;;;;1999.90;999.90;;;;;;;-144.65;100.00;64500.88;5011434;28;20625;-75
2022/09/18 03:11:49;;;;;;;1999.90;999.90;;;;;;;-144.65;100.00;64500.88;4994414;28;20032;-74
2022/09/18 03:14:14;;;;;;;1999.90;999.90;;;;;;;-144.65;100.00;64500.88;5011986;28;20013;-75
2022/09/18 03:16:39;;;;;;;1999.90;999.90;;;;;;;-144.65;100.00;64500.88;5011796;28;20033;-75
2022/09/18 03:19:05;;;;;;;1999.90;999.90;;;;;;;-144.65;100.00;64500.88;5011931;28;20367;-75
2022/09/18 03:21:30;;;;;;;1999.90;999.90;;;;;;;-144.65;100.00;64500.88;5011988;28;20550;-75
2022/09/18 03:23:55;;;;;;;1999.90;999.90;;;;;;;-144.65;100.00;64500.88;5011466;28;20124;-75
2022/09/18 03:26:21;;;;;;;1999.90;999.90;;;;;;;-144.65;100.00;64500.88;5011393;28;20105;-75
2022/09/18 03:28:47;;;;;;;1999.90;999.90;;;;;;;-144.65;100.00;64500.88;5011698;28;20033;-75
2022/09/18 03:31:12;;;;;;;1999.90;999.90;;;;;;;-144.65;100.00;64500.88;5011619;28;20438;-74
2022/09/18 03:33:38;;;;;;;1999.90;999.90;;;;;;;-144.65;100.00;64500.88;4993901;28;20022;-75
2022/09/18 03:36:05;;;;;;;1999.90;999.90;;;;;;;-144.65;100.00;64500.88;5011424;28;20034;-75
2022/09/18 03:38:31;;;;;;;1999.90;999.90;;;;;;;-144.65;100.00;64500.88;5011880;28;20040;-76
2022/09/18 03:40:57;;;;;;;1999.90;999.90;;;;;;;-144.65;100.00;64500.88;5011352;28;20026;-74
2022/09/18 03:43:22;;;;;;;1999.90;999.90;;;;;;;-144.65;100.00;64500.88;5011668;28;20018;-76
2022/09/18 03:45:48;;;;;;;1999.90;999.90;;;;;;;-144.65;100.00;64500.88;5008706;28;20045;-75
2022/09/18 03:48:13;;;;;;;1999.90;999.90;;;;;;;-144.65;100.00;64500.88;4990881;28;20022;-75
2022/09/18 03:50:39;;;;;;;1999.90;999.90;;;;;;;-144.65;100.00;64500.88;4991627;28;20037;-75
2022/09/18 03:53:04;;;;;;;1999.90;999.90;;;;;;;-144.65;100.00;64500.88;4957924;28;20395;-75
2022/09/18 03:55:29;;;;;;;1999.90;999.90;;;;;;;-144.65;100.00;64500.88;4992489;28;20065;-74
2022/09/18 03:57:56;;;;;;;1999.90;999.90;;;;;;;-144.65;100.00;64500.88;4991289;28;20395;-75
2022/09/18 04:00:21;;;;;;;1999.90;999.90;;;;;;;-144.65;100.00;64500.88;4974711;28;20045;-74
2022/09/18 04:02:47;;;;;;;1999.90;999.90;;;;;;;-144.65;100.00;64500.88;4975368;28;20031;-73
2022/09/18 04:05:14;;;;;;;1999.90;999.90;;;;;;;-144.65;100.00;64500.88;4993060;28;20026;-75
2022/09/18 04:07:39;;;;;;;1999.90;999.90;;;;;;;-144.65;100.00;64500.88;4992419;28;20034;-73
2022/09/18 04:10:05;;;;;;;1999.90;999.90;;;;;;;-144.65;100.00;64500.88;4992066;28;20483;-76
2022/09/18 04:12:30;;;;;;;1999.90;999.90;;;;;;;-144.65;100.00;64500.88;4992101;28;20018;-74
2022/09/18 04:14:55;;;;;;;1999.90;999.90;;;;;;;-144.65;100.00;64500.88;4991729;28;20023;-75
2022/09/18 04:17:21;;;;;;;1999.90;999.90;;;;;;;-144.65;100.00;64500.88;4991160;28;20450;-75
2022/09/18 04:19:47;;;;;;;1999.90;999.90;;;;;;;-144.65;100.00;64500.88;4998231;28;20104;-75
2022/09/18 04:22:12;;;;;;;1999.90;999.90;;;;;;;-144.65;100.00;64500.88;5011035;28;20137;-75
2022/09/18 04:24:38;;;;;;;1999.90;999.90;;;;;;;-144.65;100.00;64500.88;5011174;28;20113;-75
2022/09/18 04:27:04;;;;;;;1999.90;999.90;;;;;;;-144.65;100.00;64500.88;5011207;28;20116;-75
2022/09/18 04:29:31;;;;;;;1999.90;999.90;;;;;;;-144.65;100.00;64500.88;5011772;28;20483;-75
2022/09/18 04:31:57;;;;;;;1999.90;999.90;;;;;;;-144.65;100.00;64500.88;5015784;28;20092;-75
2022/09/18 04:34:22;;;;;;;1999.90;999.90;;;;;;;-144.65;100.00;64500.88;4997196;28;20033;-75
2022/09/18 04:36:47;;;;;;;1999.90;999.90;;;;;;;-144.65;100.00;64500.88;5011528;28;20444;-76
2022/09/18 04:39:13;;;;;;;1999.90;999.90;;;;;;;-144.65;100.00;64500.88;5011069;28;20034;-75
2022/09/18 04:41:39;;;;;;;1999.90;999.90;;;;;;;-144.65;100.00;64500.88;5010929;28;20069;-75
2022/09/18 04:44:05;;;;;;;1999.90;999.90;;;;;;;-144.65;100.00;64500.88;5010669;28;20109;-75
2022/09/18 04:46:30;;;;;;;1999.90;999.90;;;;;;;-144.65;100.00;64500.88;5011009;28;20034;-75
2022/09/18 04:48:56;;;;;;;1999.90;999.90;;;;;;;-144.65;100.00;64500.88;5011106;28;20461;-75
2022/09/18 04:51:21;;;;;;;1999.90;999.90;;;;;;;-144.65;100.00;64500.88;5023862;28;20041;-74
2022/09/18 04:53:46;;;;;;;1999.90;999.90;;;;;;;-144.65;100.00;64500.88;5031797;28;20100;-73
2022/09/18 04:56:12;;;;;;;1999.90;999.90;;;;;;;-144.65;100.00;64500.88;5021731;28;20052;-74
2022/09/18 04:58:37;;;;;;;1999.90;999.90;;;;;;;-144.65;100.00;64500.88;5014328;28;20026;-75
2022/09/18 05:01:02;;;;;;;1999.90;999.90;;;;;;;-144.65;100.00;64500.88;5012966;28;20460;-75
2022/09/18 05:03:28;;;;;;;1999.90;999.90;;;;;;;-144.65;100.00;64500.88;5030637;28;20033;-75
2022/09/18 05:05:55;;;;;;;1999.90;999.90;;;;;;;-144.65;100.00;64500.88;5030896;28;20474;-75
2022/09/18 05:08:21;;;;;;;1999.90;999.90;;;;;;;-144.65;100.00;64500.88;5030938;28;20044;-75
2022/09/18 05:10:47;;;;;;;1999.90;999.90;;;;;;;-144.65;100.00;64500.88;5030741;28;20059;-74
2022/09/18 05:13:12;;;;;;;1999.90;999.90;;;;;;;-144.65;100.00;64500.88;5031154;28;20535;-76
2022/09/18 05:15:38;;;;;;;1999.90;999.90;;;;;;;-144.65;100.00;64500.88;5020629;28;20467;-75
2022/09/18 05:18:05;;;;;;;1999.90;999.90;;;;;;;-144.65;100.00;64500.88;4996016;28;20038;-75
2022/09/18 05:20:33;;;;;;;1999.90;999.90;;;;;;;-144.65;100.00;64500.88;5002616;28;20018;-76
2022/09/18 05:22:59;;;;;;;1999.90;999.90;;;;;;;-144.65;100.00;64500.88;5000239;28;20038;-75
2022/09/18 05:25:28;;;;;;;1999.90;999.90;;;;;;;-144.65;100.00;64500.88;4991027;28;20032;-76
2022/09/18 05:27:54;;;;;;;1999.90;999.90;;;;;;;-144.65;100.00;64500.88;5010802;28;20061;-76
2022/09/18 05:30:21;;;;;;;1999.90;999.90;;;;;;;-144.65;100.00;64500.88;5014629;28;20030;-76
2022/09/18 05:32:57;;;;;;;1999.90;999.90;;;;;;;-144.65;100.00;64500.88;5019454;28;20036;-77
2022/09/18 05:35:24;;;;;;;1999.90;999.90;;;;;;;-144.65;100.00;64500.88;5020866;28;20049;-75
2022/09/18 05:37:51;;;;;;;1999.90;999.90;;;;;;;-144.65;100.00;64500.88;5015566;28;20061;-75
2022/09/18 05:40:18;;;;;;;1999.90;999.90;;;;;;;-144.65;100.00;64500.88;5013881;28;20025;-75
2022/09/18 05:42:46;;;;;;;1999.90;999.90;;;;;;;-144.65;100.00;64500.88;5012775;28;20042;-75
2022/09/18 05:45:13;;;;;;;1999.90;999.90;;;;;;;-144.65;100.00;64500.88;4995236;28;20026;-76
2022/09/18 05:47:39;;;;;;;1999.90;999.90;;;;;;;-144.65;100.00;64500.88;5019984;28;20033;-79
2022/09/18 05:50:05;;;;;;;1999.90;999.90;;;;;;;-144.65;100.00;64500.88;5037062;28;20050;-80
2022/09/18 05:52:30;;;;;;;1999.90;999.90;;;;;;;-144.65;100.00;64500.88;5039781;28;20040;-77
2022/09/18 05:54:55;;;;;;;1999.90;999.90;;;;;;;-144.65;100.00;64500.88;5037312;28;20001;-79
2022/09/18 05:57:21;;;;;;;1999.90;999.90;;;;;;;-144.65;100.00;64500.88;5033170;28;20026;-76
2022/09/18 05:59:47;;;;;;;1999.90;999.90;;;;;;;-144.65;100.00;64500.88;5034451;28;20021;-80
2022/09/18 06:02:12;;;;;;;1999.90;999.90;;;;;;;-144.65;100.00;64500.88;5034556;28;20002;-79
2022/09/18 06:04:38;;;;;;;1999.90;999.90;;;;;;;-144.65;100.00;64500.88;5039620;28;20022;-80
2022/09/18 06:07:04;;;;;;;1999.90;999.90;;;;;;;-144.65;100.00;64500.88;5024012;28;20109;-75
2022/09/18 06:09:30;;;;;;;1999.90;999.90;;;;;;;-144.65;100.00;64500.88;5013717;28;20133;-74
2022/09/18 06:11:56;;;;;;;1999.90;999.90;;;;;;;-144.65;100.00;64500.88;5013155;28;20038;-75
2022/09/18 06:14:21;;;;;;;1999.90;999.90;;;;;;;-144.65;100.00;64500.88;5011919;28;20026;-75
2022/09/18 06:16:46;;;;;;;1999.90;999.90;;;;;;;-144.65;100.00;64500.88;4993607;28;20036;-75
2022/09/18 06:19:12;;;;;;;1999.90;999.90;;;;;;;-144.65;100.00;64500.88;4993967;28;20029;-74
2022/09/18 06:21:37;;;;;;;1999.90;999.90;;;;;;;-144.65;100.00;64500.88;4996606;28;20022;-75
2022/09/18 06:24:03;;;;;;;1999.90;999.90;;;;;;;-144.65;100.00;64500.88;4998160;28;20057;-75
2022/09/18 06:26:28;;;;;;;1999.90;999.90;;;;;;;-144.65;100.00;64500.88;4993284;28;20010;-75
2022/09/18 06:28:53;;;;;;;1999.90;999.90;;;;;;;-144.65;100.00;64500.88;4993170;28;20045;-74
2022/09/18 06:31:19;;;;;;;1999.90;999.90;;;;;;;-144.65;100.00;64500.88;5001955;28;20026;-75
2022/09/18 06:33:47;;;;;;;1999.90;999.90;;;;;;;-144.65;100.00;64500.88;5013391;28;20030;-76
2022/09/18 06:36:13;;;;;;;1999.90;999.90;;;;;;;-144.65;100.00;64500.88;4992753;28;20021;-75
2022/09/18 06:38:39;;;;;;;1999.90;999.90;;;;;;;-144.65;100.00;64500.88;5022935;28;20033;-75
2022/09/18 06:41:04;;;;;;;1999.90;999.90;;;;;;;-144.65;100.00;64500.88;5022880;28;20033;-75
2022/09/18 06:43:29;;;;;;;1999.90;999.90;;;;;;;-144.65;100.00;64500.88;5021157;28;20092;-76
2022/09/18 06:45:56;;;;;;;1999.90;999.90;;;;;;;-144.65;100.00;64500.88;5028237;28;20038;-74
2022/09/18 06:48:25;;;;;;;1999.90;999.90;;;;;;;-144.65;100.00;64500.88;5021244;28;20018;-75
2022/09/18 06:50:52;;;;;;;1999.90;999.90;;;;;;;-144.65;100.00;64500.88;5023091;28;20029;-74
2022/09/18 06:53:18;;;;;;;1999.90;999.90;;;;;;;-144.65;100.00;64500.88;5001965;28;20017;-75
2022/09/18 06:55:44;;;;;;;1999.90;999.90;;;;;;;-144.65;100.00;64500.88;5005049;28;20034;-76
2022/09/18 06:58:12;;;;;;;1999.90;999.90;;;;;;;-144.65;100.00;64500.88;5020698;28;20049;-76
2022/09/18 07:00:37;;;;;;;1999.90;999.90;;;;;;;-144.65;100.00;64500.88;5020270;28;20535;-75
2022/09/18 07:03:02;;;;;;;1999.90;999.90;;;;;;;-144.65;100.00;64500.88;5018606;28;20078;-75
2022/09/18 07:05:31;;;;;;;1999.90;999.90;;;;;;;-144.65;100.00;64500.88;5009214;28;20057;-75
2022/09/18 07:07:56;;;;;;;1999.90;999.90;;;;;;;-144.65;100.00;64500.88;4990095;28;20046;-75
2022/09/18 07:10:24;;;;;;;1999.90;999.90;;;;;;;-144.65;100.00;64500.88;5018712;28;20087;-76
2022/09/18 07:12:54;;;;;;;1999.90;999.90;;;;;;;-144.65;100.00;64500.88;5017145;28;20060;-75
2022/09/18 07:15:20;;;;;;;1999.90;999.90;;;;;;;-144.65;100.00;64500.88;5013798;28;20075;-76
2022/09/18 07:17:45;;;;;;;1999.90;999.90;;;;;;;-144.65;100.00;64500.88;5018909;28;20034;-76
2022/09/18 07:20:12;;;;;;;1999.90;999.90;;;;;;;-144.65;100.00;64500.88;5022722;28;20031;-75
2022/09/18 07:22:38;;;;;;;1999.90;999.90;;;;;;;-144.65;100.00;64500.88;5021694;28;20089;-75
2022/09/18 07:25:04;;;;;;;1999.90;999.90;;;;;;;-144.65;100.00;64500.88;5011295;28;20097;-76
2022/09/18 07:27:30;;;;;;;1999.90;999.90;;;;;;;-144.65;100.00;64500.88;5012138;28;20024;-75
2022/09/18 07:29:56;;;;;;;1999.90;999.90;;;;;;;-144.65;100.00;64500.88;5012312;28;20033;-75
2022/09/18 07:32:23;;;;;;;1999.90;999.90;;;;;;;-144.65;100.00;64500.88;5011704;28;20032;-75
2022/09/18 07:34:48;;;;;;;1999.90;999.90;;;;;;;-144.65;100.00;64500.88;4994051;28;20014;-75
2022/09/18 07:37:15;;;;;;;1999.90;999.90;;;;;;;-144.65;100.00;64500.88;5011680;28;20041;-75
2022/09/18 07:39:42;;;;;;;1999.90;999.90;;;;;;;-144.65;100.00;64500.88;5011746;28;20029;-74
2022/09/18 07:42:08;;;;;;;1999.90;999.90;;;;;;;-144.65;100.00;64500.88;5011575;28;20399;-75
2022/09/18 07:44:34;;;;;;;1999.90;999.90;;;;;;;-144.65;100.00;64500.88;5011324;28;20026;-75
2022/09/18 07:47:00;;;;;;;1999.90;999.90;;;;;;;-144.65;100.00;64500.88;5011243;28;20054;-74
2022/09/18 07:49:26;;;;;;;1999.90;999.90;;;;;;;-144.65;100.00;64500.88;5011302;28;20026;-74
2022/09/18 07:51:51;;;;;;;1999.90;999.90;;;;;;;-144.65;100.00;64500.88;5011352;28;20028;-74
2022/09/18 07:54:17;;;;;;;1999.90;999.90;;;;;;;-144.65;100.00;64500.88;5011112;28;20069;-74
2022/09/18 07:56:42;;;;;;;1999.90;999.90;;;;;;;-144.65;100.00;64500.88;5011378;28;20489;-74
2022/09/18 07:59:09;;;;;;;1999.90;999.90;;;;;;;-144.65;100.00;64500.88;5011180;28;20116;-72
2022/09/18 08:01:34;;;;;;;1999.90;999.90;;;;;;;-144.65;100.00;64500.88;5011365;28;20038;-73
2022/09/18 08:04:00;;;;;;;1999.90;999.90;;;;;;;-144.65;100.00;64500.88;5011214;28;20018;-75
2022/09/18 08:06:26;;;;;;;1999.90;999.90;;;;;;;-144.65;100.00;64500.88;4993483;28;20111;-74
2022/09/18 08:08:51;;;;;;;1999.90;999.90;;;;;;;-144.65;100.00;64500.88;5012029;28;20081;-75
2022/09/18 08:11:17;;;;;;;1999.90;999.90;;;;;;;-144.65;100.00;64500.88;5012190;28;20021;-75
2022/09/18 08:13:42;;;;;;;1999.90;999.90;;;;;;;-144.65;100.00;64500.88;5017616;28;20387;-75
2022/09/18 08:16:08;;;;;;;1999.90;999.90;;;;;;;-144.65;100.00;64500.88;4996190;28;20456;-75
2022/09/18 08:18:35;;;;;;;1999.90;999.90;;;;;;;-144.65;100.00;64500.88;4992907;28;20085;-75
2022/09/18 08:21:00;;;;;;;1999.90;999.90;;;;;;;-144.65;100.00;64500.88;4994482;28;20054;-75
2022/09/18 08:23:25;;;;;;;1999.90;999.90;;;;;;;-144.65;100.00;64500.88;4993430;28;20026;-74
2022/09/18 08:25:51;;;;;;;1999.90;999.90;;;;;;;-144.65;100.00;64500.88;4992135;28;20049;-75
2022/09/18 08:28:17;;;;;;;1999.90;999.90;;;;;;;-144.65;100.00;64500.88;4992918;28;20030;-74
2022/09/18 08:30:42;;;;;;;1999.90;999.90;;;;;;;-144.65;100.00;64500.88;4992358;28;20030;-76
2022/09/18 08:33:09;;;;;;;1999.90;999.90;;;;;;;-144.65;100.00;64500.88;4976712;28;20031;-74
2022/09/18 08:35:35;;;;;;;1999.90;999.90;;;;;;;-144.65;100.00;64500.88;5000497;28;20067;-75
2022/09/18 08:38:00;;;;;;;1999.90;999.90;;;;;;;-144.65;100.00;64500.88;4993348;28;20031;-73
2022/09/18 08:40:56;;;;;;;1999.90;999.90;;;;;;;-144.65;100.00;64500.88;4975409;28;20033;-74
2022/09/18 08:43:27;;;;;;;1999.90;999.90;;;;;;;-144.65;100.00;64500.88;4994047;28;20499;-76
2022/09/18 08:46:01;;;;;;;1999.90;999.90;;;;;;;-144.65;100.00;64500.88;4991496;28;20030;-75
2022/09/18 08:48:33;;;;;;;1999.90;999.90;;;;;;;-144.65;100.00;64500.88;4991857;28;20038;-76
2022/09/18 08:51:03;;;;;;;1999.90;999.90;;;;;;;-144.65;100.00;64500.88;4995575;28;20067;-76
2022/09/18 08:53:39;;;;;;;1999.90;999.90;;;;;;;-144.65;100.00;64500.88;5011293;28;20037;-76
2022/09/18 08:56:14;;;;;;;1999.90;999.90;;;;;;;-144.65;100.00;64500.88;5003936;28;20026;-76
2022/09/18 08:58:59;;;;;;;1999.90;999.90;;;;;;;-144.65;100.00;64500.88;5011121;28;20087;-76
2022/09/18 09:01:34;;;;;;;1999.90;999.90;;;;;;;-144.65;100.00;64500.88;5010265;28;20030;-75
2022/09/18 09:04:11;;;;;;;1999.90;999.90;;;;;;;-144.65;100.00;64500.88;5010123;28;20026;-76
2022/09/18 09:06:57;;;;;;;1999.90;999.90;;;;;;;-144.65;100.00;64500.88;5011189;28;20034;-76
2022/09/18 09:09:43;;;;;;;1999.90;999.90;;;;;;;-144.65;100.00;64500.88;5015104;28;20184;-76
2022/09/18 09:12:17;;;;;;;1999.90;999.90;;;;;;;-144.65;100.00;64500.88;5015144;28;20061;-75
2022/09/18 09:15:13;;;;;;;1999.90;999.90;;;;;;;-144.65;100.00;64500.88;5013630;28;20069;-75
2022/09/18 09:18:00;;;;;;;1999.90;999.90;;;;;;;-144.65;100.00;64500.88;5013170;28;20081;-77
2022/09/18 09:20:50;;;;;;;1999.90;999.90;;;;;;;-144.65;100.00;64500.88;4974206;28;20390;-77
2022/09/18 09:23:21;;;;;;;1999.90;999.90;;;;;;;-144.65;100.00;64500.88;4994538;28;20033;-73
2022/09/18 09:26:08;;;;;;;1999.90;999.90;;;;;;;-144.65;100.00;64500.88;5003696;28;20474;-73
2022/09/18 09:28:55;;;;;;;1999.90;999.90;;;;;;;-144.65;100.00;64500.88;5012557;28;20037;-73
2022/09/18 09:31:28;;;;;;;1999.90;999.90;;;;;;;-144.65;100.00;64500.88;5013623;28;20022;-72
2022/09/18 09:34:05;;;;;;;1999.90;999.90;;;;;;;-144.65;100.00;64500.88;5012944;28;20517;-73
2022/09/18 09:36:33;;;;;;;1999.90;999.90;;;;;;;-144.65;100.00;64500.88;5013005;28;20038;-73
2022/09/18 09:39:14;;;;;;;1999.90;999.90;;;;;;;-144.65;100.00;64500.88;5012655;28;20038;-74
2022/09/18 09:41:45;;;;;;;1999.90;999.90;;;;;;;-144.65;100.00;64500.88;5013091;28;20029;-73
2022/09/18 09:44:37;;;;;;;1999.90;999.90;;;;;;;-144.65;100.00;64500.88;5012631;28;20490;-74
2022/09/18 09:47:20;;;;;;;1999.90;999.90;;;;;;;-144.65;100.00;64500.88;4997599;28;20030;-73
2022/09/18 09:50:04;;;;;;;1999.90;999.90;;;;;;;-144.65;100.00;64500.88;5012372;28;20041;-73
2022/09/18 09:52:30;;;;;;;1999.90;999.90;;;;;;;-144.65;100.00;64500.88;4995288;28;20034;-73
2022/09/18 09:55:20;;;;;;;1999.90;999.90;;;;;;;-144.65;100.00;64500.88;4996073;28;20109;-73
2022/09/18 09:57:54;;;;;;;1999.90;999.90;;;;;;;-144.65;100.00;64500.88;5011795;28;20566;-73
2022/09/18 10:00:20;;;;;;;1999.90;999.90;;;;;;;-144.65;100.00;64500.88;5012853;28;20500;-74
2022/09/18 10:03:13;;;;;;;1999.90;999.90;;;;;;;-144.65;100.00;64500.88;5012915;28;20113;-74
2022/09/18 10:05:44;;;;;;;1999.90;999.90;;;;;;;-144.65;100.00;64500.88;5013195;28;20022;-74
2022/09/18 10:08:13;;;;;;;1999.90;999.90;;;;;;;-144.65;100.00;64500.88;5005153;28;20042;-73
2022/09/18 10:10:44;;;;;;;1999.90;999.90;;;;;;;-144.65;100.00;64500.88;5010156;28;20033;-74
2022/09/18 10:13:16;;;;;;;1999.90;999.90;;;;;;;-144.65;100.00;64500.88;5012417;28;20113;-72
2022/09/18 10:15:46;;;;;;;1999.90;999.90;;;;;;;-144.65;100.00;64500.88;5011928;28;20115;-74
2022/09/18 10:18:21;;;;;;;1999.90;999.90;;;;;;;-144.65;100.00;64500.88;4997351;28;20032;-75
2022/09/18 10:20:52;;;;;;;1999.90;999.90;;;;;;;-144.65;100.00;64500.88;5007482;28;20029;-73
2022/09/18 10:23:27;;;;;;;1999.90;999.90;;;;;;;-144.65;100.00;64500.88;5009182;28;20111;-73
2022/09/18 10:26:00;;;;;;;1999.90;999.90;;;;;;;-144.65;100.00;64500.88;5010327;28;20498;-73
2022/09/18 10:28:28;;;;;;;1999.90;999.90;;;;;;;-144.65;100.00;64500.88;5011247;28;20049;-74
2022/09/18 10:31:02;;;;;;;1999.90;999.90;;;;;;;-144.65;100.00;64500.88;5010167;28;20144;-73
2022/09/18 10:33:46;;;;;;;1999.90;999.90;;;;;;;-144.65;100.00;64500.88;5009058;28;20054;-73
2022/09/18 10:36:22;;;;;;;1999.90;999.90;;;;;;;-144.65;100.00;64500.88;5010625;28;20073;-73
2022/09/18 10:38:49;;;;;;;1999.90;999.90;;;;;;;-144.65;100.00;64500.88;5011066;28;20038;-73
2022/09/18 10:41:35;;;;;;;1999.90;999.90;;;;;;;-144.65;100.00;64500.88;5010702;28;20025;-73
2022/09/18 10:44:13;;;;;;;1999.90;999.90;;;;;;;-144.65;100.00;64500.88;5010022;28;20061;-73
2022/09/18 10:46:50;;;;;;;1999.90;999.90;;;;;;;-144.65;100.00;64500.88;5006699;28;20372;-73